Extreme weather reports worldwide

Lowest temperatures

Station
 
Location
 
Name
 
Wind
Knots
Gust
Knots
Vis
SM
Temp/Dew
C
Baro
inHg
METAR
 
KCZL Calhoun, US Tom B. David Field 4 10 -38/-45 29.92 KCZL 190155Z AUTO 27004KT 10SM SCT070 M38/M45 A2992 RMK AO2
YUX CYUX Hall Beach, CA Hall Beach Airport 9 9 -22/-24 30.10 CYUX 190200Z AUTO 33009KT 9SM CLR M22/M24 A3010 RMK SLP196
CYUS 7 -22/-25 30.22 CYUS 190200Z AUTO 14007KT ////SM //// NCD M22/M25 A3022
NSK UOOO Norilsk, RU Norilsk-Alykel Airport 14 2.11 -20/-23 30.03 UOOO 190200Z 01007MPS 3400 DRSN BR FEW002 M20/M23 Q1017 R01/35//50 NOSIG RMK QFE748/0998
YIO CYIO Pond Inlet, CA Pond Inlet Airport 2 9 -20/-22 30.13 CYIO 190200Z AUTO VRB02KT 9SM CLR M20/M22 A3013 RMK SLP214

Station
 
Location
 
Name
 
Wind
Knots
Gust
Knots
Vis
SM
Temp/Dew
C
Baro
inHg
METAR
 
YYH CYYH Taloyoak, CA Taloyoak Airport 3 15 -19/-21 30.22 CYYH 190200Z 18003KT 15SM FEW050 FEW210 M19/M21 A3022 RMK SC1CI1 SC TR CI TR SLP238
YVM CYVM Qikiqtarjuaq, CA Qikiqtarjuaq Airport 0 9 -19/-21 30.09 CYVM 190200Z AUTO 00000KT 9SM CLR M19/M21 A3009 RMK SLP192
YCY CYCY Clyde River, CA Clyde River Airport 11 9 -18/-20 30.12 CYCY 190200Z AUTO 30011KT 9SM -SN FEW047 SCT110 BKN130 BKN150 M18/M20 A3012 RMK SLP204
CWEU 5 15 -18/-21 30.08 CWEU 190200Z 17005KT 15SM FEW040 SCT220 M18/M21 A3008 RMK SC1CI3 SLP202
YRT CYRT Rankin Inlet, CA Rankin Inlet Airport 13 15 -17/-21 30.13 CYRT 190200Z 35013KT 15SM DRSN SCT120 M17/M21 A3013 RMK AC4 SLP211
YEK CYEK Arviat, CA Arviat Airport 14 19 9 -17/-19 30.21 CYEK 190200Z AUTO 33014G19KT 9SM CLR M17/M19 A3021 RMK SLP232
CXAT 1 -17/-20 CXAT 190200Z AUTO 13001KT M17/M21 RMK AO1 SOG 04 0004 SLP219 T11721206
CWVD 9 -17/-20 29.86 CWVD 190200Z AUTO 36009KT ////SM BKN004 M17/M20 A2986
CWFD 9 -17/-19 CWFD 190200Z AUTO 22009KT ////SM OVC003 M17/M19 A////
YHK CYHK Gjoa Haven, CA Gjoa Haven Airport 18 9 -16/-18 30.24 CYHK 190200Z AUTO 34018KT 9SM CLR M16/M18 A3024 RMK SLP249
NJC USNN Nizhnevartovsk, RU Nizhnevartovsk Airport 14 23 6.21 -15/-21 30.21 USNN 190200Z 34007G12MPS 9999 FEW024CB M15/M21 Q1023 R03/0///65 NOSIG RMK QFE763
YZS CYZS Coral Harbour, CA Coral Harbour Airport 12 15 -15/-18 29.96 CYZS 190200Z 03012KT 15SM BKN029 M15/M18 A2996 RMK SC7 SLP156
YBK CYBK Baker Lake, CA Baker Lake Airport 17 20 -15/-17 30.24 CYBK 190200Z 33017KT 20SM DRSN FEW015 SCT080 BKN230 M15/M17 A3024 RMK SC1AC3CI2 SC TR SLP243
CWLX 2 -15/-18 29.98 CWLX 190200Z AUTO 34002KT ////SM OVC017 M15/M18 A2998
LIMH IT Pian Rosà 5 6.21 -15/-15 29.82 LIMH 190155Z 07005KT CAVOK M15/M15 Q1010 RMK SKC MON LIB VAL NIL VIS MIN 9999
KJFZ Richlands, US Tazewell County Airport 3 10 -15/-34 29.93 KJFZ 190155Z AUTO 33003KT 10SM OVC075 M16/M34 A2993 RMK AO2 T11571345
YRB CYRB Resolute Bay, CA Resolute Bay Airport 0 12 -14/-16 30.18 CYRB 190200Z 00000KT 12SM -SN OVC016 M14/M16 A3018 RMK SC8 SLP233
THU BGTL Thule, GL Thule Air Base 7 6.21 -14/-17 30.17 BGTL 190156Z AUTO 10007KT 9999 OVC046 M14/M17 A3017 RMK AO2 SLP206 T11441173 TSNO $
YYQ CYYQ Churchill, CA Churchill Airport 20 28 6 -13/-16 30.23 CYYQ 190200Z 35020G28KT 6SM -SN BKN017 M13/M16 A3023 RMK SC7 SLP244
YTE CYTE Cape Dorset, CA Cape Dorset Airport 3 9 -13/-16 29.92 CYTE 190200Z AUTO VRB03KT 9SM OVC022 M13/M16 A2992 RMK SLP139
CXRB 2 -13/-15 CXRB 190200Z AUTO 29002KT M13/M15 RMK AO1 SOG 10 3001 SLP235 T11341153
SGC USRR Surgut, RU Surgut Airport 14 6.21 -12/-19 30.32 USRR 190200Z 36007MPS 9999 SCT029 M12/M19 Q1027 R07/CLRD60 NOSIG RMK QFE765
PYJ UERP Yakutia, RU Polyarny Airport 2 6.21 -12/-21 30.00 UERP 190200Z VRB01MPS CAVOK M12/M21 Q1016 R35/850446 NOSIG RMK QFE718
CWJC Ennadai, CA Ennadai Lake Airport 17 -12/-14 CWJC 190200Z AUTO 33017KT M13/M15 RMK AO1 SOG 06 6012 PK WND 34020/0146 SLP304 T11271149
SFJ BGSF Kangerlussuaq, GL Kangerlussuaq Airport 7 -12/-20 30.12 BGSF 190150Z AUTO 07007KT 040V100 9999NDV NCD M12/M20 Q1020
HMA USHH Khanty-Mansiysk, RU Khanty Mansiysk Airport 4 6.21 -11/-18 30.44 USHH 190200Z 34002MPS 290V040 CAVOK M11/M18 Q1031 R06/010060 NOSIG
YER CYER Fort Severn, CA Fort Severn Airport 7 9 -11/-13 30.09 CYER 190200Z AUTO 33007KT 9SM BKN041 BKN140 M11/M13 A3009 RMK SLP191
CWPX 10 -11/-14 30.44 CWPX 190200Z AUTO 33010KT ////SM //// NCD M11/M14 A3044
CWIL 14 -11/-12 30.34 CWIL 190200Z AUTO 34014KT ////SM ////// M11/M12 A3034
JAV BGJN Ilulissat, GL Ilulissat Airport 8 -11/-18 30.15 BGJN 190150Z AUTO 07008KT 010V120 9999NDV NCD M11/M18 Q1021
YPO CYPO Peawanuck, CA Peawanuck Airport 4 9 -10/-12 30.04 CYPO 190200Z AUTO 34004KT 9SM CLR M10/M12 A3004 RMK SLP179
YFB CYFB Iqaluit, CA Iqaluit Airport 6 15 -10/-13 29.91 CYFB 190200Z 35006KT 15SM FEW060 BKN100 M10/M13 A2991 RMK SC2AC5 SLP134
YCB CYCB Cambridge Bay, CA Cambridge Bay Airport 9 15 -10/-13 30.48 CYCB 190200Z 33009KT 15SM BKN016 M10/M13 A3048 RMK SC7 SLP326
CWOB 26 32 -10/-11 29.80 CWOB 190200Z AUTO 04026G32KT ////SM OVC002 M10/M11 A2980
YPX CYPX Puvirnituq, CA Puvirnituq Airport 3 9 -9/-11 29.87 CYPX 190207Z AUTO 28003KT 9SM BKN019 OVC096 M09/M11 A2987 RMK SLP118
TOF UNTT Tomsk, RU Bogashevo Airport 17 35 0.99 -9/-11 29.65 UNTT 190200Z 31009G18MPS 1600 1200S R21/1600D SHSN BKN010 BKN020CB M09/M11 Q1004 R21/990237 NOSIG RMK QFE738
K0CO 15 10 -9/-16 30.19 K0CO 190155Z AUTO 32015KT 10SM SCT029 M09/M16 A3019 RMK AO2
KUS BGKK Kulusuk, GL Kulusuk Airport 4 -9/-14 29.62 BGKK 190150Z AUTO 25004KT 170V290 9999NDV NCD M09/M14 Q1003
OMS UNOO Omsk, RU Omsk Central Airport 12 6.21 -8/-17 30.30 UNOO 190200Z 35006MPS CAVOK M08/M17 Q1026 R25/CLRD60 NOSIG RMK QFE761
YPH CYPH Inukjuak, CA Inukjuak Airport 5 9 -8/-11 29.87 CYPH 190200Z AUTO 35005KT 9SM FEW060 SCT091 BKN140 BKN240 M08/M11 A2987 RMK SLP118
KOV UACK Kokshetau, KZ Kokshetau Airport 12 6.21 -7/-12 30.30 UACK 190200Z 03006MPS CAVOK M07/M12 Q1026 R02/090060 NOSIG RMK QFE745/0994
CWRH 21 -7/-7 29.76 CWRH 190200Z AUTO 32021KT ////SM OVC002 M07/M07 A2976
CPIN 8 -7/-7 30.60 CPIN 190200Z AUTO 27008KT ////SM OVC005 M07/M07 A3060
KMYP 3 10 -6/-7 30.33 KMYP 190203Z AUTO 35003KT 10SM BKN050 OVC070 M06/M07 A3033 RMK AO2 TSNO
SVX USSS Yekaterinburg, RU Koltsovo Airport 0 6.21 -6/-11 30.50 USSS 190200Z 00000MPS CAVOK M06/M11 Q1033 R26L/010060 NOSIG RMK QFE754/1005